Latest Weather Observations for Portland Airport

IDV60801

Issued at 8:32 am EST Friday 1 July 2016 (issued every 30 minutes, with the page automatically refreshed every 10 minutes)

About weather observations | Map of weather stations | Latest weather observations for VIC | Other Formats
Station Details ID: 090171 Name: CASHMORE AIRPORT Lat: -38.31 Lon: 141.47 Height: 80.9 m
Data from the previous 72 hours. | See also: Recent months at Portland Airport
Date/Time
EST
Temp
°C
App
Temp
°C
Dew
Point
°C
Rel
Hum
%
Delta-T
°C
Wind Press
QNH
hPa
Press
MSL
hPa
Rain since
9am
mm
Dir  Spd
km/h
Gust
km/h
Spd
kts
Gust
kts
01/08:30am 10.4 6.2 5.6 72 2.2 WSW 17 24 9 13 1020.1 1020.2 14.8
01/08:00am 9.5 4.7 5.5 76 1.8 WSW 20 30 11 16 1019.7 1019.8 14.6
01/07:37am 9.5 4.0 5.9 78 1.7 W 24 33 13 18 1019.5 1019.6 14.6
01/07:30am 9.5 4.5 6.4 81 1.4 WSW 22 32 12 17 1019.6 1019.7 14.6
01/07:21am 9.9 4.2 6.6 80 1.5 WSW 26 37 14 20 1019.6 1019.7 14.6
01/07:00am 10.5 5.7 4.4 66 2.7 WSW 19 28 10 15 1019.2 1019.3 14.6
01/06:30am 10.1 5.5 3.8 65 2.8 WSW 17 22 9 12 1018.8 1018.9 14.6
01/06:00am 10.0 4.5 4.2 67 2.6 SW 22 30 12 16 1018.3 1018.4 14.6
01/05:30am 9.8 4.8 4.6 70 2.3 WSW 20 30 11 16 1018.1 1018.2 14.6
01/05:00am 9.9 4.8 3.2 63 2.9 SW 19 28 10 15 1017.7 1017.8 14.6
01/04:30am 9.6 4.4 2.2 60 3.1 WSW 19 26 10 14 1017.3 1017.4 14.6
01/04:00am 10.1 4.8 2.9 61 3.1 SW 20 32 11 17 1017.0 1017.1 14.6
01/03:30am 10.4 5.0 4.5 67 2.7 SW 22 35 12 19 1016.8 1016.9 14.6
01/03:00am 10.4 4.3 5.0 69 2.5 SW 26 37 14 20 1016.3 1016.4 14.6
01/02:30am 10.4 4.2 4.5 67 2.7 SW 26 37 14 20 1016.0 1016.1 14.6
01/02:00am 10.3 4.4 5.9 74 2.0 SW 26 44 14 24 1015.5 1015.6 14.6
01/01:30am 9.9 3.8 6.4 79 1.6 SW 28 41 15 22 1015.0 1015.1 14.6
01/01:00am 10.1 3.4 7.5 84 1.2 SW 32 44 17 24 1014.7 1014.8 14.6
01/12:42am 9.9 3.6 7.5 85 1.1 SW 30 52 16 28 1014.4 1014.5 14.6
01/12:33am 10.1 3.3 7.9 86 1.1 SW 33 52 18 28 1014.2 1014.3 14.6
01/12:30am 10.0 3.2 7.8 86 1.1 SW 33 48 18 26 1014.2 1014.3 14.4
01/12:29am 10.1 3.3 7.9 86 1.1 SW 33 48 18 26 1014.2 1014.3 14.4
01/12:00am 10.6 4.8 7.8 83 1.4 SW 28 39 15 21 1013.7 1013.8 14.4
 
Date/Time
EST
Temp
°C
App
Temp
°C
Dew
Point
°C
Rel
Hum
%
Delta-T
°C
Wind Press
QNH
hPa
Press
MSL
hPa
Rain since
9am
mm
Dir  Spd
km/h
Gust
km/h
Spd
kts
Gust
kts
30/11:30pm 11.0 4.7 8.8 86 1.1 WSW 32 52 17 28 1013.1 1013.1 14.4
30/11:23pm 11.3 5.2 8.3 82 1.5 SW 30 52 16 28 1012.9 1012.9 14.4
30/11:00pm 11.0 5.8 7.3 78 1.8 SW 24 35 13 19 1012.5 1012.5 14.4
30/10:30pm 11.5 7.2 8.0 79 1.7 SW 20 35 11 19 1011.8 1011.9 14.4
30/10:00pm 11.4 6.7 7.9 79 1.7 SW 22 35 12 19 1011.1 1011.2 14.4
30/09:30pm 11.3 6.3 8.0 80 1.6 SSW 24 43 13 23 1010.3 1010.4 14.4
30/09:00pm 10.8 5.7 7.5 80 1.6 SW 24 37 13 20 1009.4 1009.5 14.2
30/08:42pm 11.2 5.2 7.1 76 2.0 SSW 28 48 15 26 1009.0 1009.1 14.2
30/08:30pm 10.8 6.0 7.3 79 1.7 SSW 22 37 12 20 1008.7 1008.8 14.2
30/08:11pm 10.1 4.2 7.7 85 1.2 SW 28 46 15 25 1008.3 1008.4 14.2
30/08:00pm 10.8 4.0 6.7 76 1.9 SW 32 46 17 25 1007.9 1008.0 14.2
30/07:50pm 10.8 4.8 6.9 77 1.9 SW 28 46 15 25 1007.6 1007.7 14.2
30/07:30pm 10.7 3.3 6.6 76 1.9 SW 35 50 19 27 1006.9 1007.0 14.2
30/07:00pm 10.6 3.2 6.9 78 1.8 SW 35 57 19 31 1005.8 1005.9 14.0
30/06:35pm 9.9 2.6 7.0 82 1.4 SW 35 56 19 30 1004.9 1005.0 14.0
30/06:30pm 10.0 2.7 7.4 84 1.2 SW 35 52 19 28 1004.7 1004.8 14.0
30/06:26pm 9.9 2.3 7.5 85 1.1 SW 37 57 20 31 1004.5 1004.6 14.0
30/06:24pm 9.9 1.5 7.5 85 1.1 WSW 41 59 22 32 1004.5 1004.6 14.0
30/06:10pm 10.1 1.4 8.5 90 0.8 WSW 44 67 24 36 1004.0 1004.1 14.0
30/06:09pm 10.1 1.0 8.5 90 0.8 WSW 46 67 25 36 1004.0 1004.1 14.0
30/06:00pm 10.1 -0.9 8.4 89 0.8 W 56 76 30 41 1003.7 1003.8 13.4
30/05:57pm 10.1 -0.5 8.5 90 0.8 W 54 76 29 41 1003.3 1003.4 13.2
30/05:50pm 9.7 0.1 8.1 90 0.8 W 48 70 26 38 1003.2 1003.3 13.2
30/05:48pm 9.7 0.1 8.1 90 0.8 W 48 70 26 38 1003.4 1003.5 13.2
30/05:47pm 9.5 0.3 7.9 90 0.8 W 46 70 25 38 1003.5 1003.6 13.2
30/05:30pm 9.7 -1.7 7.5 86 1.1 W 57 85 31 46 1003.4 1003.5 10.4
30/05:24pm 9.8 -0.7 7.4 85 1.1 W 52 78 28 42 1003.4 1003.5 10.2
30/05:17pm 9.7 -0.9 6.8 82 1.4 W 52 74 28 40 1003.2 1003.3 10.2
30/05:02pm 8.7 -1.6 6.5 86 1.0 W 50 69 27 37 1003.4 1003.5 10.2
30/05:00pm 8.6 -1.7 6.6 87 0.9 W 50 67 27 36 1003.6 1003.7 10.2
30/04:49pm 9.0 -0.3 5.9 81 1.4 W 44 80 24 43 1003.8 1003.9 8.8
30/04:48pm 9.1 -0.2 6.0 81 1.4 WNW 44 80 24 43 1003.8 1003.9 8.8
30/04:47pm 9.2 0.0 5.6 78 1.6 WNW 43 80 23 43 1003.8 1003.9 8.8
30/04:30pm 10.1 1.1 4.7 69 2.4 W 41 63 22 34 1004.0 1004.1 8.8
30/04:00pm 10.2 0.9 5.2 71 2.3 WNW 43 65 23 35 1004.1 1004.2 8.8
30/03:56pm 9.9 -0.3 5.1 72 2.2 W 48 67 26 36 1004.1 1004.2 8.8
30/03:48pm 9.8 2.0 4.8 71 2.3 W 35 63 19 34 1003.9 1004.0 8.8
30/03:30pm 7.7 -2.2 5.0 83 1.2 W 46 65 25 35 1004.2 1004.3 8.6
30/03:24pm 7.1 -3.7 4.1 81 1.3 W 50 74 27 40 1004.4 1004.5 7.8
30/03:23pm 7.2 -3.6 4.2 81 1.3 W 50 74 27 40 1004.4 1004.5 7.8
30/03:20pm 8.8 -1.1 4.8 76 1.8 W 46 74 25 40 1003.9 1004.0 7.0
30/03:18pm 9.8 1.4 5.4 74 2.0 W 39 74 21 40 1004.0 1004.1 7.0
30/03:01pm 10.7 3.2 6.5 75 2.0 W 35 54 19 29 1003.9 1004.0 6.8
30/03:00pm 10.7 2.9 6.6 76 1.9 W 37 54 20 29 1004.0 1004.1 6.8
30/02:47pm 10.2 2.6 6.0 75 1.9 W 35 54 19 29 1003.9 1004.0 6.8
30/02:30pm 10.6 1.9 5.8 72 2.2 W 41 54 22 29 1003.8 1003.9 6.8
30/02:25pm 10.0 2.0 5.6 74 2.0 W 37 50 20 27 1003.7 1003.8 6.8
30/02:09pm 8.9 1.4 6.3 84 1.2 W 35 67 19 36 1003.7 1003.8 6.8
30/02:00pm 9.4 1.9 6.1 80 1.5 WNW 35 65 19 35 1003.6 1003.7 6.4
30/01:30pm 10.8 2.4 5.8 71 2.3 WNW 39 57 21 31 1003.5 1003.6 6.4
30/01:04pm 10.5 3.9 6.1 74 2.1 WNW 30 48 16 26 1003.7 1003.8 6.2
30/01:00pm 9.7 3.0 5.7 76 1.8 WNW 30 41 16 22 1003.8 1003.9 6.2
30/12:45pm 8.9 2.7 6.0 82 1.3 NW 28 54 15 29 1003.9 1004.0 6.2
30/12:30pm 8.7 2.8 5.8 82 1.3 NW 26 37 14 20 1003.8 1003.9 6.2
30/12:15pm 8.4 1.3 5.7 83 1.2 WNW 32 44 17 24 1004.0 1004.1 6.2
30/12:07pm 8.8 1.8 6.9 88 0.9 WNW 33 52 18 28 1004.3 1004.4 5.8
30/12:00pm 8.6 0.7 6.2 85 1.1 WNW 37 54 20 29 1004.3 1004.4 5.4
30/11:55am 8.8 0.9 6.3 84 1.2 WNW 37 57 20 31 1004.2 1004.3 5.2
30/11:50am 8.8 1.4 6.6 86 1.0 WNW 35 57 19 31 1004.3 1004.4 5.0
30/11:36am 9.0 0.9 7.0 87 0.9 WNW 39 54 21 29 1004.5 1004.6 4.4
30/11:35am 9.0 1.3 7.0 87 0.9 WNW 37 56 20 30 1004.6 1004.7 4.4
30/11:34am 9.0 0.9 7.0 87 0.9 WNW 39 56 21 30 1004.5 1004.6 4.4
30/11:30am 9.1 1.8 7.2 88 0.9 WNW 35 56 19 30 1004.7 1004.8 4.2
30/11:25am 8.9 1.6 7.4 90 0.7 WNW 35 56 19 30 1004.6 1004.7 4.0
30/11:19am 9.2 2.4 7.8 91 0.7 NW 33 48 18 26 1004.8 1004.9 3.6
30/11:14am 9.7 4.0 8.3 91 0.7 NW 28 46 15 25 1004.7 1004.8 2.4
30/11:05am 9.9 5.0 8.3 90 0.8 NNW 24 35 13 19 1004.2 1004.3 1.4
30/11:00am 9.9 5.0 8.3 90 0.8 NNW 24 35 13 19 1004.1 1004.2 1.4
30/10:50am 9.8 4.4 8.2 90 0.8 NNW 26 39 14 21 1004.2 1004.3 1.2
30/10:49am 9.8 4.4 8.2 90 0.8 NNW 26 39 14 21 1004.2 1004.3 1.2
30/10:35am 9.7 3.9 8.1 90 0.8 NNW 28 46 15 25 1004.1 1004.2 1.2
30/10:30am 9.6 3.4 8.0 90 0.8 NNW 30 39 16 21 1004.3 1004.4 1.2
30/10:00am 9.5 4.4 7.8 89 0.8 N 24 35 13 19 1004.5 1004.6 0.8
30/09:52am 9.5 4.5 7.9 90 0.8 N 24 35 13 19 1004.5 1004.6 0.8
30/09:30am 9.3 4.1 7.3 87 0.9 NNW 24 35 13 19 1004.8 1004.9 0.4
30/09:00am 9.4 3.3 6.8 84 1.2 N 28 41 15 22 1004.4 1004.5 2.2
30/08:30am 9.2 3.5 6.6 84 1.2 N 26 37 14 20 1004.5 1004.6 2.2
30/08:00am 8.9 2.8 6.5 85 1.1 NNW 28 39 15 21 1004.5 1004.6 2.2
30/07:30am 8.9 2.1 6.7 86 1.0 NNW 32 44 17 24 1004.8 1004.9 2.0
30/07:00am 8.7 3.0 6.8 88 0.9 N 26 39 14 21 1005.1 1005.2 2.0
30/06:34am 9.0 2.6 7.0 87 0.9 NNW 30 48 16 26 1005.9 1006.0 2.0
30/06:30am 9.0 3.0 7.0 87 0.9 NNW 28 41 15 22 1006.1 1006.2 1.6
30/06:00am 9.4 2.6 6.8 84 1.2 NNW 32 52 17 28 1006.2 1006.3 1.6
30/05:41am 9.4 2.4 6.7 83 1.3 NNW 33 54 18 29 1005.5 1005.6 1.6
30/05:30am 9.5 2.0 6.4 81 1.4 NNW 35 50 19 27 1005.7 1005.8 1.6
30/05:00am 9.2 2.3 6.3 82 1.3 NNW 32 50 17 27 1006.0 1006.1 1.6
30/04:30am 9.1 2.5 6.2 82 1.3 N 30 50 16 27 1006.5 1006.6 1.6
30/04:25am 9.1 2.9 6.2 82 1.3 N 28 50 15 27 1006.6 1006.7 1.6
30/04:00am 8.8 2.7 6.4 85 1.1 N 28 44 15 24 1007.1 1007.2 1.6
30/03:38am 8.7 2.5 6.3 85 1.1 N 28 46 15 25 1007.5 1007.6 1.6
30/03:30am 8.7 3.0 6.5 86 1.0 N 26 35 14 19 1007.9 1008.0 1.4
30/03:00am 9.0 3.2 6.1 82 1.3 NNW 26 37 14 20 1008.7 1008.8 1.0
30/02:44am 9.9 3.2 5.5 74 2.0 NNW 30 48 16 26 1009.0 1009.1 0.4
30/02:30am 10.1 3.7 5.3 72 2.2 NNW 28 41 15 22 1009.2 1009.3 0.2
30/02:00am 10.3 3.5 5.1 70 2.4 NNW 30 44 16 24 1009.5 1009.6 0.2
30/01:30am 10.7 3.4 4.6 66 2.8 N 32 48 17 26 1009.8 1009.9 0.2
30/01:02am 10.7 3.2 4.4 65 2.8 N 33 54 18 29 1009.4 1009.5 0.2
30/01:00am 10.5 3.2 4.4 66 2.7 N 32 46 17 25 1009.6 1009.7 0.2
30/12:31am 10.9 3.4 4.4 64 2.9 N 33 54 18 29 1010.7 1010.8 0.2
30/12:30am 10.7 3.4 4.4 65 2.8 N 32 48 17 26 1010.8 1010.9 0.2
30/12:05am 10.8 3.8 4.3 64 2.9 N 30 56 16 30 1011.3 1011.4 0.2
30/12:00am 10.8 4.3 4.5 65 2.8 N 28 39 15 21 1011.4 1011.5 0.2
 
Date/Time
EST
Temp
°C
App
Temp
°C
Dew
Point
°C
Rel
Hum
%
Delta-T
°C
Wind Press
QNH
hPa
Press
MSL
hPa
Rain since
9am
mm
Dir  Spd
km/h
Gust
km/h
Spd
kts
Gust
kts
29/11:30pm 10.8 5.1 4.7 66 2.8 N 24 39 13 21 1011.8 1011.9 0.2
29/11:06pm 11.0 4.5 4.7 65 2.9 N 28 46 15 25 1012.0 1012.1 0.2
29/11:00pm 11.0 4.5 4.5 64 2.9 N 28 39 15 21 1012.0 1012.1 0.2
29/10:37pm 11.1 4.5 4.3 63 3.1 N 28 46 15 25 1012.5 1012.5 0.2
29/10:30pm 11.0 4.1 4.5 64 2.9 N 30 41 16 22 1012.7 1012.7 0.2
29/10:00pm 11.0 4.0 4.0 62 3.1 N 30 46 16 25 1013.4 1013.4 0.2
29/09:30pm 11.1 4.0 3.6 60 3.3 N 30 41 16 22 1013.9 1014.0 0.2
29/09:05pm 11.4 4.6 2.9 56 3.7 N 28 46 15 25 1014.2 1014.3 0.2
29/09:00pm 11.3 4.9 3.1 57 3.6 N 26 43 14 23 1014.4 1014.5 0.2
29/08:30pm 11.4 4.7 3.4 58 3.5 N 28 41 15 22 1014.8 1014.9 0.2
29/08:00pm 11.5 5.9 3.3 57 3.6 NNW 22 41 12 22 1015.7 1015.8 0.2
29/07:30pm 11.5 4.9 4.0 60 3.4 N 28 43 15 23 1015.8 1015.9 0.2
29/07:00pm 11.4 5.9 4.2 61 3.2 N 22 41 12 22 1015.9 1016.0 0.2
29/06:30pm 11.2 6.8 4.7 64 3.0 N 17 28 9 15 1016.3 1016.4 0.2
29/06:00pm 10.9 7.3 4.8 66 2.8 N 13 19 7 10 1016.3 1016.4 0.2
29/05:30pm 11.4 7.0 4.6 63 3.1 N 17 28 9 15 1016.4 1016.5 0.2
29/05:00pm 11.6 7.2 4.8 63 3.1 N 17 28 9 15 1016.7 1016.8 0.2
29/04:30pm 12.5 7.6 5.2 61 3.4 N 20 30 11 16 1017.0 1017.1 0.2
29/04:00pm 12.2 7.4 4.9 61 3.4 N 19 30 10 16 1017.3 1017.4 0.2
29/03:30pm 12.8 6.6 4.5 57 3.8 N 26 35 14 19 1017.7 1017.8 0.2
29/03:00pm 13.5 7.5 5.2 57 3.9 NNW 26 39 14 21 1018.1 1018.2 0.2
29/02:30pm 13.4 7.5 5.6 59 3.7 NNW 26 44 14 24 1018.6 1018.7 0.2
29/02:00pm 13.3 8.5 5.7 60 3.6 NNW 20 30 11 16 1019.0 1019.1 0.2
29/01:30pm 13.3 7.8 5.9 61 3.5 NNW 24 33 13 18 1019.5 1019.6 0.2
29/01:00pm 13.0 8.0 6.6 65 3.1 NNW 22 33 12 18 1020.3 1020.4 0.2
29/12:30pm 13.5 7.2 5.9 60 3.6 NNW 28 37 15 20 1021.0 1021.1 0.2
29/12:00pm 13.1 7.8 6.7 65 3.1 NNW 24 35 13 19 1021.8 1021.9 0.2
29/11:30am 12.5 7.5 6.3 66 2.9 NNW 22 33 12 18 1022.4 1022.5 0.2
29/11:00am 12.1 9.0 7.4 73 2.3 N 13 19 7 10 1022.9 1023.0 0.2
29/10:30am 10.7 7.2 7.0 78 1.8 N 15 20 8 11 1023.4 1023.5 0.0
29/10:00am 10.1 5.8 7.0 81 1.5 N 19 28 10 15 1023.6 1023.7 0.0
29/09:30am 9.2 4.7 6.3 82 1.3 N 19 26 10 14 1023.7 1023.9 0.0
29/09:00am 8.5 3.8 6.0 84 1.1 N 20 30 11 16 1023.8 1024.0 2.4
29/08:30am 7.9 3.7 5.9 87 0.9 N 17 22 9 12 1023.9 1024.1 2.4
29/08:00am 7.6 3.4 5.9 89 0.8 N 17 20 9 11 1023.9 1024.1 2.4
29/07:30am 7.7 3.7 6.5 92 0.6 N 17 22 9 12 1023.8 1024.0 2.4
29/07:00am 8.1 4.9 7.0 93 0.5 N 13 19 7 10 1023.9 1024.1 2.4
29/06:30am 8.8 5.0 7.7 93 0.5 N 17 22 9 12 1023.8 1024.0 2.4
29/06:00am 9.1 6.2 8.0 93 0.5 N 13 19 7 10 1023.7 1023.9 2.4
29/05:30am 9.5 6.7 8.4 93 0.5 NNW 13 19 7 10 1023.6 1023.7 2.4
29/05:00am 9.5 6.3 8.6 94 0.4 NNW 15 19 8 10 1023.5 1023.6 2.4
29/04:30am 9.3 6.5 8.4 94 0.4 N 13 19 7 10 1023.4 1023.5 2.4
29/04:00am 9.3 6.1 8.4 94 0.4 N 15 19 8 10 1023.5 1023.6 2.4
29/03:30am 9.6 6.5 8.7 94 0.4 N 15 20 8 11 1023.7 1023.9 2.2
29/03:00am 9.9 7.2 9.0 94 0.4 N 13 17 7 9 1023.8 1024.0 2.2
29/02:35am 10.2 7.5 9.1 93 0.5 N 13 17 7 9 1023.8 1024.0 2.2
29/02:30am 10.2 7.9 9.1 93 0.5 N 11 15 6 8 1023.8 1024.0 2.2
29/02:12am 10.2 7.9 9.1 93 0.5 NW 11 19 6 10 1024.2 1024.4 2.2
29/02:00am 10.1 7.0 9.0 93 0.5 NNW 15 20 8 11 1024.0 1024.2 2.2
29/01:30am 10.0 6.9 8.9 93 0.5 NNW 15 20 8 11 1024.0 1024.2 2.2
29/01:00am 9.6 6.8 8.5 93 0.5 N 13 19 7 10 1023.9 1024.1 2.2
29/12:30am 9.7 6.9 8.6 93 0.5 N 13 17 7 9 1024.1 1024.3 2.2
29/12:00am 10.1 7.4 8.9 92 0.6 N 13 20 7 11 1024.3 1024.5 2.2
 
Date/Time
EST
Temp
°C
App
Temp
°C
Dew
Point
°C
Rel
Hum
%
Delta-T
°C
Wind Press
QNH
hPa
Press
MSL
hPa
Rain since
9am
mm
Dir  Spd
km/h
Gust
km/h
Spd
kts
Gust
kts
28/11:30pm 10.1 7.4 8.9 92 0.6 NNW 13 17 7 9 1024.2 1024.4 2.2
28/11:00pm 10.0 7.3 8.8 92 0.6 N 13 15 7 8 1024.1 1024.3 2.2
28/10:30pm 10.5 7.9 9.3 92 0.6 N 13 15 7 8 1024.1 1024.3 2.2
28/10:00pm 10.8 8.2 9.4 91 0.7 NNW 13 19 7 10 1024.2 1024.4 2.2
28/09:30pm 11.1 8.2 9.7 91 0.7 NNW 15 19 8 10 1024.3 1024.5 2.2
28/09:00pm 11.3 8.1 9.9 91 0.7 NNW 17 24 9 13 1024.3 1024.5 2.2
28/08:30pm 11.0 8.1 9.8 92 0.6 NNW 15 19 8 10 1024.2 1024.4 2.0
28/08:06pm 11.4 9.0 10.0 91 0.7 NNW 13 19 7 10 1024.1 1024.3 2.0
28/08:00pm 11.4 8.2 10.0 91 0.7 NW 17 22 9 12 1024.1 1024.3 2.0
28/07:42pm 11.4 8.9 9.7 89 0.9 NW 13 17 7 9 1024.2 1024.4 1.0
28/07:30pm 11.4 8.8 9.5 88 1.0 WNW 13 19 7 10 1024.1 1024.3 0.6
28/07:00pm 11.7 7.9 9.9 89 0.9 NNW 20 28 11 15 1023.6 1023.7 0.4
28/06:30pm 12.3 9.1 10.0 86 1.2 NNW 17 24 9 13 1023.3 1023.4 0.4
28/06:00pm 12.2 9.3 9.8 85 1.2 NNW 15 19 8 10 1023.1 1023.2 0.4
28/05:30pm 12.0 8.7 9.7 86 1.2 NW 17 20 9 11 1022.9 1023.0 0.4
28/05:00pm 12.2 8.6 9.8 85 1.2 NW 19 24 10 13 1022.8 1022.9 0.4
28/04:30pm 13.1 7.7 9.5 79 1.8 NW 28 35 15 19 1022.4 1022.5 0.4
28/04:00pm 13.1 8.7 10.3 83 1.4 NW 24 32 13 17 1022.4 1022.5 0.4
28/03:30pm 12.8 7.1 9.8 82 1.5 NW 30 43 16 23 1022.3 1022.4 0.2
28/03:00pm 13.6 10.0 10.6 82 1.6 NW 20 28 11 15 1022.2 1022.3 0.2
28/02:30pm 14.8 10.1 10.6 76 2.2 NW 26 37 14 20 1022.0 1022.1 0.2
28/02:00pm 14.9 10.2 10.7 76 2.2 NW 26 37 14 20 1022.1 1022.2 0.2
28/01:30pm 15.0 10.4 11.0 77 2.1 NW 26 37 14 20 1022.2 1022.3 0.2
28/01:18pm 14.7 10.4 10.9 78 2.0 NW 24 35 13 19 1022.3 1022.4 0.2
28/01:00pm 14.0 10.0 10.6 80 1.8 NNW 22 33 12 18 1022.4 1022.5 0.2
28/12:38pm 14.0 10.8 11.2 83 1.5 NNW 19 28 10 15 1022.6 1022.7 0.2
28/12:30pm 13.9 11.1 11.2 84 1.4 NNW 17 26 9 14 1022.5 1022.6 0.2
28/12:00pm 13.4 9.5 10.8 84 1.4 NNW 22 30 12 16 1022.7 1022.8 0.2
28/11:30am 12.9 9.9 10.6 86 1.2 NNW 17 24 9 13 1023.0 1023.1 0.2
28/11:00am 12.3 9.4 11.0 92 0.7 NNW 17 20 9 11 1023.1 1023.2 0.2
28/10:30am 11.6 8.1 10.3 92 0.7 NNW 19 24 10 13 1023.0 1023.1 0.0
28/10:11am 12.0 9.5 10.9 93 0.6 NNW 15 22 8 12 1022.8 1022.9 0.0
28/10:00am 11.2 8.1 10.3 94 0.5 NNW 17 24 9 13 1022.7 1022.8 0.0
28/09:30am 9.8 5.8 8.9 94 0.4 NNW 20 28 11 15 1022.6 1022.7 0.0
28/09:29am 9.8 5.8 8.9 94 0.4 NNW 20 26 11 14 1022.6 1022.7 0.0
28/09:00am 10.5 7.6 9.6 94 0.5 NW 15 22 8 12 1022.3 1022.4 0.2

Other Formats:

Comma delimited format used in spreadsheet applications
http://www.bom.gov.au/fwo/IDV60801/IDV60801.94828.axf

JavaScript Object Notation format (JSON) in row-major order
http://www.bom.gov.au/fwo/IDV60801/IDV60801.94828.json